Time;durP1;ratioP1;P1;durP2;ratioP2;P2;SDS_P1;SDS_P2;PMS_P1;PMS_P2;Temp;Humidity;BMP_temperature;BMP_pressure;BME280_temperature;BME280_humidity;BME280_pressure;Samples;Min_cycle;Max_cycle;Signal;HPM_P1;HPM_P2
2021/12/20 00:00:46;;;;;;;38.05;5.20;;;4.00;99.90;;;;;;5065954;28;20036;-35
2021/12/20 00:03:12;;;;;;;45.72;4.35;;;3.90;99.90;;;;;;5067943;28;20118;-35
2021/12/20 00:05:37;;;;;;;39.33;4.97;;;3.80;99.90;;;;;;5067657;28;20835;-35
2021/12/20 00:08:03;;;;;;;46.90;3.88;;;3.80;99.90;;;;;;5068118;28;20111;-36
2021/12/20 00:10:29;;;;;;;46.60;4.22;;;3.60;99.90;;;;;;5068104;28;20497;-35
2021/12/20 00:12:54;;;;;;;44.35;4.47;;;3.50;99.90;;;;;;5068080;28;20119;-35
2021/12/20 00:15:20;;;;;;;38.03;3.65;;;3.50;99.90;;;;;;5067794;28;20050;-35
2021/12/20 00:17:46;;;;;;;32.95;3.42;;;3.10;99.90;;;;;;5067523;28;20048;-35
2021/12/20 00:20:13;;;;;;;40.00;5.65;;;3.30;99.90;;;;;;5067842;28;20046;-35
2021/12/20 00:22:40;;;;;;;51.85;5.32;;;3.30;99.90;;;;;;5067622;28;20070;-35
2021/12/20 00:25:07;;;;;;;46.92;4.97;;;3.10;99.90;;;;;;5067745;28;20070;-35
2021/12/20 00:27:33;;;;;;;47.50;5.07;;;3.10;99.90;;;;;;5067409;28;20094;-35
2021/12/20 00:29:59;;;;;;;42.78;4.50;;;3.10;99.90;;;;;;5067668;28;20131;-35
2021/12/20 00:32:25;;;;;;;49.28;4.75;;;2.90;99.90;;;;;;5067656;28;20041;-35
2021/12/20 00:34:51;;;;;;;46.88;4.00;;;2.90;99.90;;;;;;5067381;28;20354;-35
2021/12/20 00:40:21;;;;;;;53.67;4.30;;;2.70;99.90;;;;;;5067878;28;20047;-35
2021/12/20 00:42:53;;;;;;;47.35;4.45;;;2.70;99.90;;;;;;5067708;28;20079;-36
2021/12/20 00:45:19;;;;;;;;;;;2.60;99.90;;;;;;5068044;28;20049;-35
2021/12/20 00:47:45;;;;;;;46.15;4.07;;;2.50;99.90;;;;;;5067046;28;19920;-35
2021/12/20 00:50:13;;;;;;;38.17;4.00;;;2.40;99.90;;;;;;5066108;28;20036;-35
2021/12/20 00:52:40;;;;;;;46.95;5.25;;;2.50;99.90;;;;;;5067161;28;20040;-35
2021/12/20 00:55:07;;;;;;;40.05;5.05;;;2.40;99.90;;;;;;5067360;28;20491;-35
2021/12/20 00:57:33;;;;;;;46.17;4.28;;;2.20;99.90;;;;;;5067258;28;20036;-35
2021/12/20 00:59:59;;;;;;;48.22;3.75;;;2.20;99.90;;;;;;5065700;28;20140;-35
2021/12/20 01:02:25;;;;;;;53.92;4.72;;;2.10;99.90;;;;;;5071261;28;20140;-35
2021/12/20 01:04:51;;;;;;;54.00;4.43;;;2.00;99.90;;;;;;5071457;28;20036;-35
2021/12/20 01:07:17;;;;;;;46.47;4.30;;;1.90;99.90;;;;;;5072098;28;20080;-35
2021/12/20 01:09:42;;;;;;;48.55;5.10;;;2.10;99.90;;;;;;5071538;28;20147;-35
2021/12/20 01:12:15;;;;;;;34.67;3.88;;;1.90;99.90;;;;;;5071244;28;20478;-35
2021/12/20 01:14:41;;;;;;;52.17;5.53;;;1.70;99.90;;;;;;5070912;28;20109;-35
2021/12/20 01:17:07;;;;;;;54.13;4.68;;;1.80;99.90;;;;;;5071022;28;20372;-35
2021/12/20 01:19:33;;;;;;;49.85;4.75;;;1.80;99.90;;;;;;5070637;28;20074;-35
2021/12/20 01:21:59;;;;;;;47.53;4.25;;;1.70;99.90;;;;;;5071028;28;20056;-35
2021/12/20 01:24:25;;;;;;;52.78;3.75;;;1.70;99.90;;;;;;5071036;28;20494;-35
2021/12/20 01:26:51;;;;;;;55.50;5.25;;;1.50;99.90;;;;;;5071078;28;20435;-35
2021/12/20 01:29:17;;;;;;;47.47;3.97;;;1.40;99.90;;;;;;5071242;28;20424;-36
2021/12/20 01:31:43;;;;;;;39.17;5.07;;;1.30;99.90;;;;;;5071164;28;20048;-36
2021/12/20 01:34:09;;;;;;;49.20;3.63;;;1.30;99.90;;;;;;5070917;28;20096;-36
2021/12/20 01:36:34;;;;;;;54.22;4.80;;;1.30;99.90;;;;;;5071341;28;20075;-36
2021/12/20 01:39:20;;;;;;;39.95;3.40;;;1.20;99.90;;;;;;5071131;28;20060;-36
2021/12/20 01:41:46;;;;;;;40.33;4.00;;;1.20;99.90;;;;;;5069708;28;20065;-36
2021/12/20 01:44:13;;;;;;;47.75;4.70;;;1.20;99.90;;;;;;5071070;28;20051;-36
2021/12/20 01:46:39;;;;;;;50.53;4.40;;;1.10;99.90;;;;;;5069562;28;20532;-36
2021/12/20 01:49:09;;;;;;;45.53;4.05;;;1.10;99.90;;;;;;5071197;28;20044;-36
2021/12/20 01:54:04;;;;;;;54.38;4.35;;;1.10;99.90;;;;;;5071112;28;20044;-36
2021/12/20 01:56:32;;;;;;;49.97;4.40;;;1.10;99.90;;;;;;5070955;28;20383;-36
2021/12/20 01:59:06;;;;;;;39.40;4.82;;;1.10;99.90;;;;;;5070592;28;20058;-38
2021/12/20 02:01:32;;;;;;;44.15;4.35;;;1.10;99.90;;;;;;5070015;28;20128;-36
2021/12/20 02:04:01;;;;;;;38.55;3.00;;;1.00;99.90;;;;;;5070906;28;20155;-36
2021/12/20 02:06:38;;;;;;;42.35;4.97;;;1.00;99.90;;;;;;5070458;28;20040;-36
2021/12/20 02:09:09;;;;;;;39.50;3.63;;;1.00;99.90;;;;;;5070879;28;20056;-36
2021/12/20 02:11:38;;;;;;;41.97;3.63;;;1.00;99.90;;;;;;5070584;28;20052;-36
2021/12/20 02:14:05;;;;;;;48.85;3.80;;;1.00;99.90;;;;;;5070769;28;20428;-36
2021/12/20 02:16:32;;;;;;;49.33;3.55;;;0.90;99.90;;;;;;5070395;28;20047;-36
2021/12/20 02:19:02;;;;;;;31.35;3.67;;;1.20;99.90;;;;;;5070095;28;20048;-36
2021/12/20 02:21:28;;;;;;;53.85;3.47;;;0.90;99.90;;;;;;5070142;28;20045;-36
2021/12/20 02:23:53;;;;;;;40.40;3.47;;;0.90;99.90;;;;;;5069845;28;20110;-37
2021/12/20 02:26:22;;;;;;;40.83;4.15;;;0.80;99.90;;;;;;5070354;28;20083;-37
2021/12/20 02:28:50;;;;;;;54.72;4.55;;;0.80;99.90;;;;;;5070314;28;20045;-36
2021/12/20 02:39:18;;;;;;;40.72;5.60;;;0.70;99.90;;;;;;5070154;28;20068;-36
2021/12/20 02:41:44;;;;;;;50.58;3.85;;;0.90;99.90;;;;;;5070282;28;20128;-36
2021/12/20 02:44:17;;;;;;;43.88;4.50;;;0.80;99.90;;;;;;5070406;28;20447;-36
2021/12/20 02:47:06;;;;;;;39.88;3.92;;;0.80;99.90;;;;;;5070378;28;20036;-36
2021/12/20 02:49:32;;;;;;;40.47;3.42;;;0.70;99.90;;;;;;5070063;28;20055;-37
2021/12/20 02:52:07;;;;;;;35.97;3.50;;;0.70;99.90;;;;;;5070080;28;20127;-36
2021/12/20 02:54:34;;;;;;;27.73;3.50;;;0.80;99.90;;;;;;5069970;28;20036;-37
2021/12/20 02:57:00;;;;;;;41.85;3.55;;;0.70;99.90;;;;;;5069659;28;20079;-36
2021/12/20 02:59:26;;;;;;;35.88;3.72;;;0.70;99.90;;;;;;5068442;28;20132;-36
2021/12/20 03:02:02;;;;;;;33.20;2.63;;;0.60;99.90;;;;;;5069489;28;20430;-36
2021/12/20 03:04:38;;;;;;;31.48;4.19;;;0.60;99.90;;;;;;5030959;28;10000691;-37
2021/12/20 03:07:07;;;;;;;40.20;3.10;;;0.50;99.90;;;;;;5069658;28;20246;-37
2021/12/20 03:09:38;;;;;;;46.20;5.40;;;0.50;99.90;;;;;;5070424;28;20033;-37
2021/12/20 03:12:06;;;;;;;40.83;3.42;;;-0.60;99.90;;;;;;5070560;28;20028;-36
2021/12/20 03:14:39;;;;;;;30.92;2.35;;;0.30;99.90;;;;;;5070866;28;20059;-37
2021/12/20 03:17:06;;;;;;;35.63;3.20;;;0.20;99.90;;;;;;5070844;28;20044;-36
2021/12/20 03:19:32;;;;;;;35.13;2.33;;;0.10;99.90;;;;;;5070860;28;20084;-37
2021/12/20 03:21:59;;;;;;;34.53;3.47;;;0.00;99.90;;;;;;5070158;28;20186;-36
2021/12/20 03:24:25;;;;;;;31.98;2.83;;;0.00;99.90;;;;;;5070545;28;20420;-37
2021/12/20 03:26:51;;;;;;;28.77;2.15;;;-0.10;99.90;;;;;;5070268;28;20600;-37
2021/12/20 03:29:17;;;;;;;43.25;3.30;;;-0.20;99.90;;;;;;5070360;28;20604;-37
2021/12/20 03:31:43;;;;;;;27.88;2.95;;;-0.20;99.90;;;;;;5070421;28;20052;-36
2021/12/20 03:34:09;;;;;;;33.33;4.25;;;-0.30;99.90;;;;;;5069938;28;20056;-37
2021/12/20 03:36:35;;;;;;;42.28;4.00;;;-0.30;99.90;;;;;;5070642;28;20127;-36
2021/12/20 03:39:04;;;;;;;29.77;2.63;;;-0.40;99.90;;;;;;5070126;28;20410;-36
2021/12/20 03:41:30;;;;;;;45.63;3.58;;;-0.40;99.90;;;;;;5070278;28;20047;-36
2021/12/20 03:43:56;;;;;;;36.85;2.45;;;-0.40;99.90;;;;;;5070183;28;20048;-36
2021/12/20 03:46:22;;;;;;;41.17;2.72;;;-0.50;99.90;;;;;;5070324;28;20536;-36
2021/12/20 03:48:47;;;;;;;34.90;2.38;;;-0.50;99.90;;;;;;5070032;28;20058;-36
2021/12/20 03:51:13;;;;;;;32.08;2.90;;;-0.50;99.90;;;;;;5069712;28;20041;-36
2021/12/20 03:53:39;;;;;;;33.83;3.05;;;-0.60;99.90;;;;;;5070074;28;20040;-36
2021/12/20 03:56:05;;;;;;;38.45;3.22;;;-0.60;99.90;;;;;;5069614;28;20037;-36
2021/12/20 03:58:32;;;;;;;37.60;3.00;;;-0.60;99.90;;;;;;5069931;28;20040;-36
2021/12/20 04:01:00;;;;;;;29.77;4.20;;;-0.60;99.90;;;;;;5067849;28;20068;-36
2021/12/20 04:03:28;;;;;;;35.90;3.42;;;-0.60;99.90;;;;;;5069913;28;20048;-36
2021/12/20 04:05:54;;;;;;;29.65;2.70;;;-0.50;99.90;;;;;;5069883;28;20045;-36
2021/12/20 04:08:20;;;;;;;32.72;2.60;;;-0.60;99.90;;;;;;5069640;28;20539;-36
2021/12/20 04:10:45;;;;;;;30.73;2.92;;;-0.60;99.90;;;;;;5069449;28;20040;-36
2021/12/20 04:13:11;;;;;;;33.80;3.67;;;-0.60;99.90;;;;;;5069449;28;20044;-36
2021/12/20 04:15:37;;;;;;;41.47;3.53;;;-0.70;99.90;;;;;;5069464;28;20090;-38
2021/12/20 04:18:04;;;;;;;32.53;2.85;;;-0.70;99.90;;;;;;5069331;28;20102;-36
2021/12/20 04:20:30;;;;;;;30.05;2.97;;;-0.90;99.90;;;;;;5069371;28;20048;-36
2021/12/20 04:22:56;;;;;;;36.72;3.65;;;-0.90;99.90;;;;;;5067215;28;20056;-36
2021/12/20 04:25:21;;;;;;;37.75;3.30;;;-0.70;99.90;;;;;;5069406;28;20056;-36
2021/12/20 04:27:47;;;;;;;27.52;2.67;;;-0.70;99.90;;;;;;5069458;28;20079;-36
2021/12/20 04:30:13;;;;;;;36.47;2.92;;;-0.60;99.90;;;;;;5069001;28;20556;-36
2021/12/20 04:32:42;;;;;;;37.47;2.80;;;-0.60;99.90;;;;;;5069287;28;20390;-36
2021/12/20 04:35:10;;;;;;;36.90;3.63;;;-0.70;99.90;;;;;;5068455;28;20048;-36
2021/12/20 04:37:36;;;;;;;35.28;2.85;;;-0.70;99.90;;;;;;5067936;28;20082;-36
2021/12/20 04:40:07;;;;;;;32.08;2.90;;;-0.70;99.90;;;;;;5069125;28;20029;-36
2021/12/20 04:42:33;;;;;;;37.30;3.13;;;-0.70;99.90;;;;;;5069026;28;20032;-36
2021/12/20 04:44:59;;;;;;;36.75;3.28;;;-0.70;99.90;;;;;;5068910;28;20042;-36
2021/12/20 04:47:25;;;;;;;34.85;4.25;;;-1.80;99.90;;;;;;5068810;28;20555;-36
2021/12/20 04:49:50;;;;;;;44.50;3.95;;;-0.70;99.90;;;;;;5069209;28;20075;-36
2021/12/20 04:52:16;;;;;;;25.05;2.40;;;-0.70;99.90;;;;;;5068730;28;20044;-36
2021/12/20 04:54:42;;;;;;;43.13;3.20;;;-0.70;99.90;;;;;;5069028;28;20079;-36
2021/12/20 04:57:08;;;;;;;50.85;4.00;;;-0.80;99.90;;;;;;5068755;28;20498;-36
2021/12/20 04:59:34;;;;;;;26.13;1.80;;;-0.80;99.90;;;;;;5069185;28;20044;-36
2021/12/20 05:02:00;;;;;;;24.63;2.10;;;-0.90;99.90;;;;;;5067071;28;20402;-36
2021/12/20 05:04:26;;;;;;;27.35;2.05;;;-0.90;99.90;;;;;;5068570;28;20048;-36
2021/12/20 05:06:51;;;;;;;21.48;2.40;;;-1.00;99.90;;;;;;5069088;28;20044;-36
2021/12/20 05:09:18;;;;;;;28.70;2.22;;;-1.00;99.90;;;;;;5068468;28;20048;-36
2021/12/20 05:11:50;;;;;;;30.35;2.78;;;-1.00;99.90;;;;;;5068936;28;20045;-36
2021/12/20 05:14:17;;;;;;;18.90;3.67;;;-1.00;99.90;;;;;;5068769;28;20106;-36
2021/12/20 05:16:42;;;;;;;22.00;2.05;;;-1.10;99.90;;;;;;5069112;28;20052;-36
2021/12/20 05:19:08;;;;;;;26.55;2.15;;;-1.10;99.90;;;;;;5068696;28;20040;-37
2021/12/20 05:21:34;;;;;;;43.70;2.38;;;-1.10;99.90;;;;;;5067308;28;20479;-36
2021/12/20 05:24:00;;;;;;;22.63;2.25;;;-1.10;99.90;;;;;;5068592;28;20057;-36
2021/12/20 05:26:26;;;;;;;27.70;2.33;;;-1.20;99.90;;;;;;5067212;28;20491;-36
2021/12/20 05:28:54;;;;;;;34.40;2.22;;;-1.20;99.90;;;;;;5068505;28;20048;-36
2021/12/20 05:31:21;;;;;;;28.77;2.53;;;-1.20;99.90;;;;;;5068409;28;20041;-36
2021/12/20 05:33:46;;;;;;;21.65;2.38;;;-1.30;99.90;;;;;;5068638;28;20044;-36
2021/12/20 05:36:12;;;;;;;26.25;2.05;;;-1.30;99.90;;;;;;5068405;28;20050;-36
2021/12/20 05:38:38;;;;;;;24.23;2.90;;;-1.40;99.90;;;;;;5068595;28;20402;-36
2021/12/20 05:41:03;;;;;;;40.17;4.72;;;-1.30;99.90;;;;;;5068413;28;20117;-36
2021/12/20 05:43:29;;;;;;;15.45;1.77;;;-1.40;99.90;;;;;;5068027;28;20043;-36
2021/12/20 05:45:55;;;;;;;32.80;2.88;;;-1.30;99.90;;;;;;5068932;28;20049;-36
2021/12/20 05:48:21;;;;;;;28.83;6.30;;;-1.30;99.90;;;;;;5071612;28;20052;-36
2021/12/20 05:50:46;;;;;;;27.08;4.85;;;-1.30;99.90;;;;;;5072702;28;20072;-36
2021/12/20 05:53:12;;;;;;;25.30;3.47;;;-1.30;99.90;;;;;;5072604;28;20048;-36
2021/12/20 05:55:38;;;;;;;34.40;4.82;;;1.00;99.90;;;;;;5072752;28;20053;-36
2021/12/20 05:58:04;;;;;;;27.35;3.65;;;-1.40;99.90;;;;;;5072215;28;20044;-36
2021/12/20 06:00:29;;;;;;;23.52;2.50;;;-1.40;99.90;;;;;;5070327;28;20047;-36
2021/12/20 06:02:55;;;;;;;18.52;2.50;;;-1.40;99.90;;;;;;5072003;28;20090;-36
2021/12/20 06:05:23;;;;;;;32.75;3.70;;;-1.40;99.90;;;;;;5071874;28;20028;-36
2021/12/20 06:07:49;;;;;;;25.20;3.08;;;-1.40;99.90;;;;;;5072130;28;20486;-36
2021/12/20 06:10:17;;;;;;;23.88;3.10;;;-1.50;99.90;;;;;;5072016;28;20036;-36
2021/12/20 06:12:44;;;;;;;32.08;3.85;;;-1.60;99.90;;;;;;5072206;28;20120;-36
2021/12/20 06:15:10;;;;;;;43.25;3.85;;;-1.60;99.90;;;;;;5071989;28;20072;-36
2021/12/20 06:17:36;;;;;;;28.33;4.03;;;-1.50;99.90;;;;;;5071944;28;20344;-36
2021/12/20 06:20:08;;;;;;;33.03;4.25;;;-1.70;99.90;;;;;;5071917;28;20487;-36
2021/12/20 06:22:34;;;;;;;52.60;5.68;;;-1.50;99.90;;;;;;5071315;28;20525;-36
2021/12/20 06:25:00;;;;;;;56.55;5.38;;;-1.60;99.90;;;;;;5072189;28;20048;-36
2021/12/20 06:27:26;;;;;;;63.38;5.07;;;-1.60;99.90;;;;;;5072012;28;20500;-36
2021/12/20 06:29:52;;;;;;;70.55;5.68;;;-1.60;99.90;;;;;;5071603;28;20036;-36
2021/12/20 06:32:17;;;;;;;57.85;5.88;;;-1.60;99.90;;;;;;5071460;28;20050;-36
2021/12/20 06:34:43;;;;;;;55.17;3.78;;;-1.60;99.90;;;;;;5071224;28;20117;-36
2021/12/20 06:37:10;;;;;;;29.25;3.13;;;-1.80;99.90;;;;;;5071257;28;20056;-36
2021/12/20 06:39:36;;;;;;;26.38;3.83;;;-1.60;99.90;;;;;;5071132;28;20127;-36
2021/12/20 06:42:02;;;;;;;34.85;4.00;;;-1.70;99.90;;;;;;5071062;28;20124;-36
2021/12/20 06:44:28;;;;;;;25.48;2.58;;;-1.60;99.90;;;;;;5069893;28;20048;-36
2021/12/20 06:46:54;;;;;;;81.00;4.50;;;-1.70;99.90;;;;;;5071783;28;20036;-36
2021/12/20 06:49:21;;;;;;;34.63;2.20;;;-1.70;99.90;;;;;;5071288;28;20043;-36
2021/12/20 06:51:47;;;;;;;29.40;3.05;;;-1.70;99.90;;;;;;5071170;28;20085;-36
2021/12/20 06:54:15;;;;;;;85.82;3.03;;;-1.70;99.90;;;;;;5071631;28;20456;-36
2021/12/20 06:56:42;;;;;;;143.90;4.90;;;-1.80;99.90;;;;;;5069614;28;20043;-36
2021/12/20 06:59:07;;;;;;;105.80;4.57;;;-1.70;99.90;;;;;;5068514;28;20048;-36
2021/12/20 07:01:33;;;;;;;124.97;6.97;;;-1.70;99.90;;;;;;5069210;28;20040;-36
2021/12/20 07:04:01;;;;;;;42.70;4.18;;;-1.70;99.90;;;;;;5069367;28;20040;-36
2021/12/20 07:06:27;;;;;;;45.08;3.85;;;-1.80;99.90;;;;;;5070381;28;20098;-36
2021/12/20 07:08:53;;;;;;;29.20;3.70;;;-1.70;99.90;;;;;;5070488;28;20075;-36
2021/12/20 07:11:19;;;;;;;37.30;4.13;;;-1.70;99.90;;;;;;5070477;28;20072;-36
2021/12/20 07:13:44;;;;;;;23.83;4.07;;;-1.70;99.90;;;;;;5070448;28;20040;-36
2021/12/20 07:16:12;;;;;;;30.80;3.55;;;-1.70;99.90;;;;;;5070198;28;20044;-36
2021/12/20 07:18:37;;;;;;;46.67;6.35;;;-1.30;99.90;;;;;;5070453;28;20398;-36
2021/12/20 07:21:03;;;;;;;38.13;4.88;;;-1.00;99.90;;;;;;5070409;28;20028;-36
2021/12/20 07:23:29;;;;;;;23.52;4.18;;;-1.00;99.90;;;;;;5070340;28;20213;-36
2021/12/20 07:25:55;;;;;;;16.25;3.10;;;-1.10;99.90;;;;;;5070551;28;20048;-36
2021/12/20 07:28:21;;;;;;;20.80;4.45;;;-1.20;99.90;;;;;;5070317;28;20101;-36
2021/12/20 07:30:48;;;;;;;18.58;4.40;;;-1.40;99.90;;;;;;5070230;28;20036;-36
2021/12/20 07:33:15;;;;;;;23.80;4.65;;;-1.40;99.90;;;;;;5068426;28;20051;-36
2021/12/20 07:35:42;;;;;;;15.95;4.20;;;-1.50;99.90;;;;;;5069303;28;20045;-36
2021/12/20 07:38:12;;;;;;;22.13;4.72;;;-1.50;99.90;;;;;;5069776;28;20041;-36
2021/12/20 07:40:45;;;;;;;22.00;6.05;;;-1.60;99.90;;;;;;5069978;28;20129;-36
2021/12/20 07:43:14;;;;;;;23.77;5.75;;;-1.60;99.90;;;;;;5070158;28;20052;-36
2021/12/20 07:45:40;;;;;;;35.58;6.05;;;-1.80;99.90;;;;;;5070168;28;20047;-36
2021/12/20 07:48:06;;;;;;;21.50;6.18;;;-1.70;99.90;;;;;;5069855;28;20097;-36
2021/12/20 07:50:32;;;;;;;21.85;6.10;;;-1.70;99.90;;;;;;5069680;28;20155;-36
2021/12/20 07:52:58;;;;;;;26.13;5.70;;;-1.80;99.90;;;;;;5069760;28;20040;-36
2021/12/20 07:55:24;;;;;;;23.63;4.55;;;-1.80;99.90;;;;;;5070200;28;20047;-36
2021/12/20 07:57:51;;;;;;;24.38;4.75;;;-1.80;99.90;;;;;;5069333;28;20048;-36
2021/12/20 08:00:17;;;;;;;36.03;5.93;;;-1.80;99.90;;;;;;5070060;28;20048;-36
2021/12/20 08:02:43;;;;;;;32.58;7.30;;;-1.80;99.90;;;;;;5069445;28;20438;-36
2021/12/20 08:05:10;;;;;;;39.95;6.65;;;-1.80;99.90;;;;;;5069732;28;20283;-36
2021/12/20 08:07:36;;;;;;;41.03;6.15;;;-1.80;99.90;;;;;;5069314;28;20410;-36
2021/12/20 08:10:03;;;;;;;38.25;6.70;;;-1.80;99.90;;;;;;5069901;28;20127;-36
2021/12/20 08:12:29;;;;;;;30.58;5.90;;;-1.80;99.90;;;;;;5069882;28;20068;-36
2021/12/20 08:14:54;;;;;;;22.77;6.25;;;-1.70;99.90;;;;;;5069405;28;20513;-36
2021/12/20 08:17:20;;;;;;;23.58;5.45;;;-1.70;99.90;;;;;;5069519;28;20048;-36
2021/12/20 08:19:46;;;;;;;25.27;6.45;;;-1.70;99.90;;;;;;5069192;28;20052;-36
2021/12/20 08:22:11;;;;;;;18.33;5.35;;;-1.80;99.90;;;;;;5067056;28;20041;-36
2021/12/20 08:24:37;;;;;;;24.33;6.85;;;-1.80;99.90;;;;;;5068466;28;20050;-36
2021/12/20 08:27:03;;;;;;;30.63;5.43;;;-1.70;99.90;;;;;;5068912;28;20040;-36
2021/12/20 08:29:29;;;;;;;28.60;7.03;;;-1.70;99.90;;;;;;5069406;28;20458;-36
2021/12/20 08:32:01;;;;;;;26.55;6.40;;;-1.80;99.90;;;;;;5063196;28;20045;-37
2021/12/20 08:34:27;;;;;;;39.58;8.77;;;-0.40;99.90;;;;;;5061303;28;20043;-36
2021/12/20 08:36:53;;;;;;;43.72;10.27;;;-1.70;99.90;;;;;;5058512;28;20041;-36
2021/12/20 08:39:19;;;;;;;24.15;6.10;;;-1.70;99.90;;;;;;5049197;28;20059;-36
2021/12/20 08:41:46;;;;;;;93.85;14.95;;;-1.70;99.90;;;;;;5048700;28;20099;-36
2021/12/20 08:44:12;;;;;;;58.63;8.93;;;-1.50;99.90;;;;;;5049066;28;20047;-36
2021/12/20 08:46:37;;;;;;;71.18;11.15;;;-1.60;99.90;;;;;;5048998;28;20048;-36
2021/12/20 08:49:03;;;;;;;54.13;11.10;;;-1.50;99.90;;;;;;5048909;28;20033;-36
2021/12/20 08:51:30;;;;;;;37.88;8.10;;;-1.50;99.90;;;;;;5048966;28;20519;-36
2021/12/20 08:53:56;;;;;;;36.05;8.25;;;-1.40;99.90;;;;;;5048648;28;20513;-36
2021/12/20 08:56:22;;;;;;;33.10;7.15;;;-1.40;99.90;;;;;;5048879;28;20029;-36
2021/12/20 08:58:48;;;;;;;24.13;5.57;;;-1.40;99.90;;;;;;5048805;28;20127;-36
2021/12/20 09:01:14;;;;;;;30.17;6.47;;;-1.40;99.90;;;;;;5057814;28;20119;-36
2021/12/20 09:03:40;;;;;;;26.73;5.40;;;-1.30;99.90;;;;;;5068862;28;20495;-37
2021/12/20 09:06:08;;;;;;;49.92;6.85;;;-1.30;99.90;;;;;;5068939;28;20040;-36
2021/12/20 09:08:34;;;;;;;44.45;8.13;;;-0.90;99.90;;;;;;5068756;28;20033;-36
2021/12/20 09:11:00;;;;;;;46.08;7.22;;;-1.30;99.90;;;;;;5068687;28;20040;-36
2021/12/20 09:13:26;;;;;;;38.10;6.47;;;-1.20;99.90;;;;;;5069456;28;20758;-36
2021/12/20 09:15:55;;;;;;;34.95;6.15;;;-1.20;99.90;;;;;;5068897;28;20044;-36
2021/12/20 09:18:20;;;;;;;56.55;6.50;;;-1.20;99.90;;;;;;5068974;28;20123;-36
2021/12/20 09:20:46;;;;;;;63.13;7.38;;;-1.10;99.90;;;;;;5069057;28;20128;-36
2021/12/20 09:23:13;;;;;;;47.88;7.68;;;-1.10;99.90;;;;;;5071997;28;20057;-36
2021/12/20 09:25:43;;;;;;;41.05;6.82;;;-1.00;99.90;;;;;;5072929;28;20128;-36
2021/12/20 09:28:11;;;;;;;54.38;8.25;;;-0.80;99.90;;;;;;5072740;28;20083;-36
2021/12/20 09:30:39;;;;;;;50.28;7.05;;;-0.60;99.90;;;;;;5072938;28;20109;-36
2021/12/20 09:33:05;;;;;;;54.35;7.40;;;-0.40;99.90;;;;;;5072157;28;20040;-36
2021/12/20 09:35:32;;;;;;;51.20;7.22;;;-0.40;99.90;;;;;;5072379;28;20032;-36
2021/12/20 09:37:57;;;;;;;66.47;8.40;;;-0.40;99.90;;;;;;5072054;28;20127;-36
2021/12/20 09:40:33;;;;;;;42.17;6.90;;;-0.30;99.90;;;;;;5072587;28;20115;-36
2021/12/20 09:43:02;;;;;;;32.20;5.85;;;-0.40;99.90;;;;;;5072568;28;20040;-36
2021/12/20 09:45:29;;;;;;;54.17;8.65;;;-0.40;99.90;;;;;;5072572;28;20527;-36
2021/12/20 09:47:55;;;;;;;36.08;8.18;;;-0.40;99.90;;;;;;5071713;28;20036;-36
2021/12/20 09:50:21;;;;;;;33.03;9.85;;;-0.40;99.90;;;;;;5072032;28;20108;-36
2021/12/20 09:52:47;;;;;;;41.42;11.18;;;-0.30;99.90;;;;;;5072002;28;20119;-36
2021/12/20 09:55:15;;;;;;;35.80;10.85;;;-0.30;99.90;;;;;;5068689;28;20045;-36
2021/12/20 09:57:43;;;;;;;51.38;11.13;;;-0.30;99.90;;;;;;5071716;28;20066;-36
2021/12/20 10:00:12;;;;;;;37.28;9.60;;;-0.20;99.90;;;;;;5071163;28;20497;-36
2021/12/20 10:02:38;;;;;;;40.92;9.77;;;-0.20;99.90;;;;;;5070334;28;20132;-36
2021/12/20 10:05:04;;;;;;;45.45;13.20;;;-0.30;99.90;;;;;;5071720;28;20124;-36
2021/12/20 10:07:31;;;;;;;55.58;15.40;;;-0.20;99.90;;;;;;5071422;28;20032;-36
2021/12/20 10:10:00;;;;;;;60.55;19.42;;;-0.10;99.90;;;;;;5069710;28;20048;-36
2021/12/20 10:12:26;;;;;;;93.53;23.35;;;-0.10;99.90;;;;;;5070929;28;20040;-36
2021/12/20 10:14:56;;;;;;;119.82;23.42;;;-0.10;99.90;;;;;;5071118;28;20048;-36
2021/12/20 10:17:22;;;;;;;99.93;25.00;;;0.00;99.90;;;;;;5071452;28;20032;-36
2021/12/20 10:19:49;;;;;;;104.95;25.17;;;0.00;99.90;;;;;;5070072;28;20106;-37
2021/12/20 10:22:29;;;;;;;81.93;23.88;;;0.10;99.90;;;;;;5069956;28;20047;-36
2021/12/20 10:25:00;;;;;;;100.25;26.33;;;0.20;99.90;;;;;;5070509;28;20049;-36
2021/12/20 10:27:35;;;;;;;131.63;27.90;;;0.30;99.90;;;;;;5071084;28;20040;-36
2021/12/20 10:30:26;;;;;;;150.98;30.85;;;0.50;99.90;;;;;;5068068;28;20355;-36
2021/12/20 10:32:53;;;;;;;108.85;23.55;;;0.80;99.90;;;;;;5068618;28;20560;-36
2021/12/20 10:35:35;;;;;;;60.83;22.30;;;0.90;99.90;;;;;;5069836;28;20036;-36
2021/12/20 10:38:03;;;;;;;;;;;1.00;99.90;;;;;;5070454;28;20090;-36
2021/12/20 10:40:30;;;;;;;133.90;29.50;;;1.10;99.90;;;;;;5068463;28;19927;-36
2021/12/20 10:42:57;;;;;;;68.05;25.65;;;2.30;99.90;;;;;;5070172;28;20040;-36
2021/12/20 10:45:25;;;;;;;60.25;24.38;;;1.10;99.90;;;;;;5069334;28;20494;-38
2021/12/20 10:47:51;;;;;;;60.85;26.50;;;1.10;99.90;;;;;;5070227;28;20127;-36
2021/12/20 10:50:30;;;;;;;66.38;28.20;;;1.10;99.90;;;;;;5070435;28;20113;-37
2021/12/20 10:53:22;;;;;;;45.53;24.00;;;1.10;99.90;;;;;;5069251;28;20048;-36
2021/12/20 10:55:54;;;;;;;85.07;28.35;;;1.10;99.90;;;;;;5071037;28;20052;-36
2021/12/20 10:58:29;;;;;;;75.82;29.17;;;1.10;99.90;;;;;;5071158;28;20127;-36
2021/12/20 11:01:20;;;;;;;64.40;28.35;;;1.10;99.90;;;;;;5070795;28;20123;-36
2021/12/20 11:04:05;;;;;;;79.97;32.83;;;1.20;99.90;;;;;;5068917;28;20052;-36
2021/12/20 11:09:20;;;;;;;218.10;54.72;;;1.30;99.90;;;;;;5070522;28;20040;-36
2021/12/20 11:11:52;;;;;;;122.10;44.78;;;1.40;99.90;;;;;;5071173;28;20152;-36
2021/12/20 11:14:20;;;;;;;132.88;45.30;;;1.40;99.90;;;;;;5070158;28;20167;-36
2021/12/20 11:16:50;;;;;;;57.90;29.77;;;1.30;99.90;;;;;;5070860;28;20327;-36
2021/12/20 11:19:20;;;;;;;96.22;36.00;;;1.30;99.90;;;;;;5067872;28;20044;-36
2021/12/20 11:21:58;;;;;;;107.25;35.65;;;1.20;99.90;;;;;;5071065;28;20169;-36
2021/12/20 11:24:35;;;;;;;101.85;39.45;;;1.20;99.90;;;;;;5070250;28;20461;-36
2021/12/20 11:27:03;;;;;;;108.63;40.90;;;1.30;99.90;;;;;;5070442;28;20450;-36
2021/12/20 11:29:30;;;;;;;66.10;27.90;;;1.30;99.90;;;;;;5070092;28;20486;-36
2021/12/20 11:31:57;;;;;;;90.15;34.47;;;1.30;99.90;;;;;;5070097;28;20048;-36
2021/12/20 11:34:24;;;;;;;69.38;33.25;;;1.20;99.90;;;;;;5070192;28;20087;-36
2021/12/20 11:36:51;;;;;;;70.88;31.50;;;1.30;99.90;;;;;;5070458;28;20095;-36
2021/12/20 11:39:17;;;;;;;62.15;29.42;;;1.30;99.90;;;;;;5069975;28;20045;-36
2021/12/20 11:41:43;;;;;;;63.38;27.42;;;1.40;99.90;;;;;;5070024;28;20044;-36
2021/12/20 11:44:15;;;;;;;44.35;24.17;;;2.30;99.90;;;;;;5069807;28;20054;-36
2021/12/20 11:46:51;;;;;;;49.67;25.45;;;1.50;99.90;;;;;;5068237;28;20097;-36
2021/12/20 11:49:22;;;;;;;46.95;21.15;;;1.60;99.90;;;;;;5069914;28;20040;-36
2021/12/20 11:51:54;;;;;;;52.63;24.73;;;1.60;99.90;;;;;;5069611;28;20049;-36
2021/12/20 11:54:40;;;;;;;38.15;22.35;;;1.70;99.90;;;;;;5068466;28;20044;-36
2021/12/20 11:57:27;;;;;;;46.60;26.13;;;1.80;99.90;;;;;;5069900;28;20051;-36
2021/12/20 11:59:59;;;;;;;43.67;23.77;;;4.50;99.90;;;;;;5069564;28;20079;-36
2021/12/20 12:02:29;;;;;;;;;;;1.70;99.90;;;;;;5050094;28;20466;-36
2021/12/20 12:05:01;;;;;;;39.22;16.80;;;1.90;99.90;;;;;;5050049;28;19967;-36
2021/12/20 12:07:31;;;;;;;45.90;20.20;;;1.90;99.90;;;;;;5049211;28;20517;-37
2021/12/20 12:09:58;;;;;;;35.95;17.05;;;2.00;99.90;;;;;;5049743;28;20094;-37
2021/12/20 12:12:26;;;;;;;41.42;18.52;;;2.00;99.90;;;;;;5049069;28;20394;-37
2021/12/20 12:15:08;;;;;;;36.63;16.88;;;2.00;99.90;;;;;;5049038;28;20053;-37
2021/12/20 12:18:10;;;;;;;39.65;19.45;;;2.00;99.90;;;;;;5049283;28;20045;-37
2021/12/20 12:20:39;;;;;;;33.00;17.05;;;2.00;99.90;;;;;;5046866;28;20083;-37
2021/12/20 12:23:16;;;;;;;34.58;16.63;;;2.10;99.90;;;;;;5048706;28;20388;-37
2021/12/20 12:26:05;;;;;;;47.13;20.50;;;2.10;99.90;;;;;;5049596;28;20048;-37
2021/12/20 12:28:57;;;;;;;32.85;14.80;;;1.90;99.90;;;;;;5049749;28;20394;-37
2021/12/20 12:31:57;;;;;;;45.03;17.23;;;2.20;99.90;;;;;;5049453;28;20185;-37
2021/12/20 12:34:40;;;;;;;34.80;12.02;;;2.20;99.90;;;;;;5048213;28;20044;-37
2021/12/20 12:37:23;;;;;;;35.05;13.35;;;2.30;99.90;;;;;;5049446;28;20122;-37
2021/12/20 12:39:49;;;;;;;26.10;10.18;;;2.40;99.90;;;;;;5049126;28;20434;-37
2021/12/20 12:42:15;;;;;;;33.80;13.48;;;2.50;99.90;;;;;;5048766;28;20099;-37
2021/12/20 12:44:50;;;;;;;26.73;12.30;;;2.60;99.90;;;;;;5047710;28;20140;-37
2021/12/20 12:47:33;;;;;;;31.20;10.98;;;2.60;99.90;;;;;;5048779;28;20036;-37
2021/12/20 12:50:00;;;;;;;44.75;16.20;;;2.70;99.90;;;;;;5049253;28;20044;-37
2021/12/20 12:52:26;;;;;;;33.70;13.40;;;2.70;99.90;;;;;;5048599;28;20049;-37
2021/12/20 12:55:03;;;;;;;28.60;11.88;;;2.70;99.90;;;;;;5048994;28;20052;-37
2021/12/20 12:57:31;;;;;;;24.40;8.25;;;2.70;99.90;;;;;;5047958;28;20044;-37
2021/12/20 13:00:11;;;;;;;29.10;7.28;;;2.70;99.90;;;;;;5049612;28;20041;-37